sensor_id;sensor_type;location;lat;lon;timestamp;temperature;humidity
15296;DHT22;7749;49.964;7.890;2023-02-01T00:01:18;6.30;99.90
15296;DHT22;7749;49.964;7.890;2023-02-01T00:03:45;6.30;99.90
15296;DHT22;7749;49.964;7.890;2023-02-01T00:06:17;6.30;99.90
15296;DHT22;7749;49.964;7.890;2023-02-01T00:08:44;6.30;99.90
15296;DHT22;7749;49.964;7.890;2023-02-01T00:11:12;6.30;99.90
15296;DHT22;7749;49.964;7.890;2023-02-01T00:13:41;6.30;99.90
15296;DHT22;7749;49.964;7.890;2023-02-01T00:16:14;6.30;99.90
15296;DHT22;7749;49.964;7.890;2023-02-01T00:18:47;6.30;99.90
15296;DHT22;7749;49.964;7.890;2023-02-01T00:21:17;6.40;99.90
15296;DHT22;7749;49.964;7.890;2023-02-01T00:23:45;6.40;99.90
15296;DHT22;7749;49.964;7.890;2023-02-01T00:26:35;6.50;99.90
15296;DHT22;7749;49.964;7.890;2023-02-01T00:29:06;6.50;99.90
15296;DHT22;7749;49.964;7.890;2023-02-01T00:31:34;6.50;99.90
15296;DHT22;7749;49.964;7.890;2023-02-01T00:34:02;6.60;99.90
15296;DHT22;7749;49.964;7.890;2023-02-01T00:36:30;6.60;99.90
15296;DHT22;7749;49.964;7.890;2023-02-01T00:38:58;6.60;99.90
15296;DHT22;7749;49.964;7.890;2023-02-01T00:41:26;6.60;99.90
15296;DHT22;7749;49.964;7.890;2023-02-01T00:43:54;6.60;99.90
15296;DHT22;7749;49.964;7.890;2023-02-01T00:46:21;6.50;99.90
15296;DHT22;7749;49.964;7.890;2023-02-01T00:48:50;6.60;99.90
15296;DHT22;7749;49.964;7.890;2023-02-01T00:51:22;6.50;99.90
15296;DHT22;7749;49.964;7.890;2023-02-01T00:53:50;6.50;99.90
15296;DHT22;7749;49.964;7.890;2023-02-01T00:56:18;6.50;99.90
15296;DHT22;7749;49.964;7.890;2023-02-01T00:58:46;6.50;99.90
15296;DHT22;7749;49.964;7.890;2023-02-01T01:01:25;6.60;99.90
15296;DHT22;7749;49.964;7.890;2023-02-01T01:03:56;6.60;99.90
15296;DHT22;7749;49.964;7.890;2023-02-01T01:06:26;6.50;99.90
15296;DHT22;7749;49.964;7.890;2023-02-01T01:08:55;6.60;99.90
15296;DHT22;7749;49.964;7.890;2023-02-01T01:11:29;6.60;99.90
15296;DHT22;7749;49.964;7.890;2023-02-01T01:13:58;6.60;99.90
15296;DHT22;7749;49.964;7.890;2023-02-01T01:16:28;6.60;99.90
15296;DHT22;7749;49.964;7.890;2023-02-01T01:18:56;6.60;99.90
15296;DHT22;7749;49.964;7.890;2023-02-01T01:21:25;6.50;99.90
15296;DHT22;7749;49.964;7.890;2023-02-01T01:23:55;6.60;99.90
15296;DHT22;7749;49.964;7.890;2023-02-01T01:26:26;6.60;99.90
15296;DHT22;7749;49.964;7.890;2023-02-01T01:28:56;6.50;99.90
15296;DHT22;7749;49.964;7.890;2023-02-01T01:31:24;6.60;99.90
15296;DHT22;7749;49.964;7.890;2023-02-01T01:33:57;6.50;99.90
15296;DHT22;7749;49.964;7.890;2023-02-01T01:36:26;6.50;99.90
15296;DHT22;7749;49.964;7.890;2023-02-01T01:38:54;6.50;99.90
15296;DHT22;7749;49.964;7.890;2023-02-01T01:41:25;6.50;99.90
15296;DHT22;7749;49.964;7.890;2023-02-01T01:43:54;6.50;99.90
15296;DHT22;7749;49.964;7.890;2023-02-01T01:49:15;6.50;99.90
15296;DHT22;7749;49.964;7.890;2023-02-01T01:51:55;6.40;99.90
15296;DHT22;7749;49.964;7.890;2023-02-01T01:54:32;6.50;99.90
15296;DHT22;7749;49.964;7.890;2023-02-01T01:57:07;6.40;99.90
15296;DHT22;7749;49.964;7.890;2023-02-01T01:59:38;6.50;99.90
15296;DHT22;7749;49.964;7.890;2023-02-01T02:02:07;6.50;99.90
15296;DHT22;7749;49.964;7.890;2023-02-01T02:04:35;6.50;99.90
15296;DHT22;7749;49.964;7.890;2023-02-01T02:07:20;6.50;99.90
15296;DHT22;7749;49.964;7.890;2023-02-01T02:09:49;6.50;99.90
15296;DHT22;7749;49.964;7.890;2023-02-01T02:12:28;6.50;99.90
15296;DHT22;7749;49.964;7.890;2023-02-01T02:14:56;6.50;99.90
15296;DHT22;7749;49.964;7.890;2023-02-01T02:34:36;6.40;99.90
15296;DHT22;7749;49.964;7.890;2023-02-01T02:40:15;6.40;99.90
15296;DHT22;7749;49.964;7.890;2023-02-01T02:43:10;6.30;99.90
15296;DHT22;7749;49.964;7.890;2023-02-01T02:46:07;6.40;99.90
15296;DHT22;7749;49.964;7.890;2023-02-01T02:49:05;6.40;99.90
15296;DHT22;7749;49.964;7.890;2023-02-01T02:51:39;6.30;99.90
15296;DHT22;7749;49.964;7.890;2023-02-01T02:54:36;6.30;99.90
15296;DHT22;7749;49.964;7.890;2023-02-01T02:57:30;6.40;99.90
15296;DHT22;7749;49.964;7.890;2023-02-01T03:00:21;6.50;99.90
15296;DHT22;7749;49.964;7.890;2023-02-01T03:03:08;6.60;99.90
15296;DHT22;7749;49.964;7.890;2023-02-01T03:05:54;6.70;99.90
15296;DHT22;7749;49.964;7.890;2023-02-01T03:08:28;6.90;99.90
15296;DHT22;7749;49.964;7.890;2023-02-01T03:11:06;6.90;99.90
15296;DHT22;7749;49.964;7.890;2023-02-01T03:13:58;7.00;99.90
15296;DHT22;7749;49.964;7.890;2023-02-01T03:21:37;7.10;99.90
15296;DHT22;7749;49.964;7.890;2023-02-01T03:24:20;7.10;99.90
15296;DHT22;7749;49.964;7.890;2023-02-01T03:26:55;7.10;99.90
15296;DHT22;7749;49.964;7.890;2023-02-01T03:29:32;7.10;99.90
15296;DHT22;7749;49.964;7.890;2023-02-01T03:32:02;7.10;99.90
15296;DHT22;7749;49.964;7.890;2023-02-01T03:34:30;7.00;99.90
15296;DHT22;7749;49.964;7.890;2023-02-01T03:37:04;7.00;99.90
15296;DHT22;7749;49.964;7.890;2023-02-01T03:39:36;7.00;99.90
15296;DHT22;7749;49.964;7.890;2023-02-01T03:42:12;6.90;99.90
15296;DHT22;7749;49.964;7.890;2023-02-01T03:44:54;6.70;99.90
15296;DHT22;7749;49.964;7.890;2023-02-01T03:47:29;6.60;99.90
15296;DHT22;7749;49.964;7.890;2023-02-01T03:50:01;6.60;99.90
15296;DHT22;7749;49.964;7.890;2023-02-01T03:52:53;6.50;99.90
15296;DHT22;7749;49.964;7.890;2023-02-01T03:55:22;6.40;99.90
15296;DHT22;7749;49.964;7.890;2023-02-01T03:57:57;6.40;99.90
15296;DHT22;7749;49.964;7.890;2023-02-01T04:00:26;6.30;99.90
15296;DHT22;7749;49.964;7.890;2023-02-01T04:02:55;6.30;99.90
15296;DHT22;7749;49.964;7.890;2023-02-01T04:05:22;6.20;99.90
15296;DHT22;7749;49.964;7.890;2023-02-01T04:07:50;6.30;99.90
15296;DHT22;7749;49.964;7.890;2023-02-01T04:10:21;6.40;99.90
15296;DHT22;7749;49.964;7.890;2023-02-01T04:12:49;6.30;99.90
15296;DHT22;7749;49.964;7.890;2023-02-01T04:15:17;6.30;99.90
15296;DHT22;7749;49.964;7.890;2023-02-01T04:17:44;6.30;99.90
15296;DHT22;7749;49.964;7.890;2023-02-01T04:20:12;6.30;99.90
15296;DHT22;7749;49.964;7.890;2023-02-01T04:22:40;6.30;99.90
15296;DHT22;7749;49.964;7.890;2023-02-01T04:25:07;6.40;99.90
15296;DHT22;7749;49.964;7.890;2023-02-01T04:27:35;6.30;99.90
15296;DHT22;7749;49.964;7.890;2023-02-01T04:30:04;6.30;99.90
15296;DHT22;7749;49.964;7.890;2023-02-01T04:32:33;6.30;99.90
15296;DHT22;7749;49.964;7.890;2023-02-01T04:35:01;6.30;99.90
15296;DHT22;7749;49.964;7.890;2023-02-01T04:37:29;6.20;99.90
15296;DHT22;7749;49.964;7.890;2023-02-01T04:39:56;6.20;99.90
15296;DHT22;7749;49.964;7.890;2023-02-01T04:42:24;6.30;99.90
15296;DHT22;7749;49.964;7.890;2023-02-01T04:44:52;6.30;99.90
15296;DHT22;7749;49.964;7.890;2023-02-01T04:47:20;6.20;99.90
15296;DHT22;7749;49.964;7.890;2023-02-01T04:49:49;6.30;99.90
15296;DHT22;7749;49.964;7.890;2023-02-01T04:52:16;6.30;99.90
15296;DHT22;7749;49.964;7.890;2023-02-01T04:54:44;6.30;99.90
15296;DHT22;7749;49.964;7.890;2023-02-01T04:57:12;6.40;99.90
15296;DHT22;7749;49.964;7.890;2023-02-01T04:59:40;6.30;99.90
15296;DHT22;7749;49.964;7.890;2023-02-01T05:02:08;6.50;99.90
15296;DHT22;7749;49.964;7.890;2023-02-01T05:04:36;6.40;99.90
15296;DHT22;7749;49.964;7.890;2023-02-01T05:07:06;6.50;99.90
15296;DHT22;7749;49.964;7.890;2023-02-01T05:09:34;6.50;99.90
15296;DHT22;7749;49.964;7.890;2023-02-01T05:12:01;6.50;99.90
15296;DHT22;7749;49.964;7.890;2023-02-01T05:14:48;6.60;99.90
15296;DHT22;7749;49.964;7.890;2023-02-01T05:17:16;6.70;99.90
15296;DHT22;7749;49.964;7.890;2023-02-01T05:19:44;6.70;99.90
15296;DHT22;7749;49.964;7.890;2023-02-01T05:22:11;6.70;99.90
15296;DHT22;7749;49.964;7.890;2023-02-01T05:24:41;6.70;99.90
15296;DHT22;7749;49.964;7.890;2023-02-01T05:27:09;6.70;99.90
15296;DHT22;7749;49.964;7.890;2023-02-01T05:29:37;6.70;99.90
15296;DHT22;7749;49.964;7.890;2023-02-01T05:32:04;6.60;99.90
15296;DHT22;7749;49.964;7.890;2023-02-01T05:34:49;6.60;99.90
15296;DHT22;7749;49.964;7.890;2023-02-01T05:37:16;6.70;99.90
15296;DHT22;7749;49.964;7.890;2023-02-01T05:39:44;6.80;99.90
15296;DHT22;7749;49.964;7.890;2023-02-01T05:42:12;6.90;99.90
15296;DHT22;7749;49.964;7.890;2023-02-01T05:44:39;7.00;99.90
15296;DHT22;7749;49.964;7.890;2023-02-01T05:47:10;7.00;99.90
15296;DHT22;7749;49.964;7.890;2023-02-01T05:49:38;7.10;99.90
15296;DHT22;7749;49.964;7.890;2023-02-01T05:52:05;7.00;99.90
15296;DHT22;7749;49.964;7.890;2023-02-01T05:54:33;7.10;99.90
15296;DHT22;7749;49.964;7.890;2023-02-01T05:57:01;6.90;99.90
15296;DHT22;7749;49.964;7.890;2023-02-01T05:59:31;6.70;99.90
15296;DHT22;7749;49.964;7.890;2023-02-01T06:01:58;6.60;99.90
15296;DHT22;7749;49.964;7.890;2023-02-01T06:04:26;6.60;99.90
15296;DHT22;7749;49.964;7.890;2023-02-01T06:06:57;6.50;99.90
15296;DHT22;7749;49.964;7.890;2023-02-01T06:09:25;6.40;99.90
15296;DHT22;7749;49.964;7.890;2023-02-01T06:11:52;6.40;99.90
15296;DHT22;7749;49.964;7.890;2023-02-01T06:14:20;6.30;99.90
15296;DHT22;7749;49.964;7.890;2023-02-01T06:16:48;6.30;99.90
15296;DHT22;7749;49.964;7.890;2023-02-01T06:19:16;6.20;99.90
15296;DHT22;7749;49.964;7.890;2023-02-01T06:21:46;6.20;99.90
15296;DHT22;7749;49.964;7.890;2023-02-01T06:24:15;6.20;99.90
15296;DHT22;7749;49.964;7.890;2023-02-01T06:26:43;6.20;99.90
15296;DHT22;7749;49.964;7.890;2023-02-01T06:29:12;6.30;99.90
15296;DHT22;7749;49.964;7.890;2023-02-01T06:31:40;6.30;99.90
15296;DHT22;7749;49.964;7.890;2023-02-01T06:34:10;6.30;99.90
15296;DHT22;7749;49.964;7.890;2023-02-01T06:36:38;6.20;99.90
15296;DHT22;7749;49.964;7.890;2023-02-01T06:39:06;6.30;99.90
15296;DHT22;7749;49.964;7.890;2023-02-01T06:41:33;6.20;99.90
15296;DHT22;7749;49.964;7.890;2023-02-01T06:44:02;6.20;99.90
15296;DHT22;7749;49.964;7.890;2023-02-01T06:46:29;6.20;99.90
15296;DHT22;7749;49.964;7.890;2023-02-01T06:48:57;6.20;99.90
15296;DHT22;7749;49.964;7.890;2023-02-01T06:51:27;6.30;99.90
15296;DHT22;7749;49.964;7.890;2023-02-01T06:53:56;6.40;99.90
15296;DHT22;7749;49.964;7.890;2023-02-01T06:56:24;6.40;99.90
15296;DHT22;7749;49.964;7.890;2023-02-01T06:58:53;6.30;99.90
15296;DHT22;7749;49.964;7.890;2023-02-01T07:01:23;6.30;99.90
15296;DHT22;7749;49.964;7.890;2023-02-01T07:03:53;6.40;99.90
15296;DHT22;7749;49.964;7.890;2023-02-01T07:06:21;6.30;99.90
15296;DHT22;7749;49.964;7.890;2023-02-01T07:08:49;6.30;99.90
15296;DHT22;7749;49.964;7.890;2023-02-01T07:11:18;6.30;99.90
15296;DHT22;7749;49.964;7.890;2023-02-01T07:13:46;6.30;99.90
15296;DHT22;7749;49.964;7.890;2023-02-01T07:16:16;6.40;99.90
15296;DHT22;7749;49.964;7.890;2023-02-01T07:18:44;6.30;99.90
15296;DHT22;7749;49.964;7.890;2023-02-01T07:21:13;6.20;99.90
15296;DHT22;7749;49.964;7.890;2023-02-01T07:23:40;6.10;99.90
15296;DHT22;7749;49.964;7.890;2023-02-01T07:26:13;6.20;99.90
15296;DHT22;7749;49.964;7.890;2023-02-01T07:28:41;6.20;99.90
15296;DHT22;7749;49.964;7.890;2023-02-01T07:31:17;6.20;99.90
15296;DHT22;7749;49.964;7.890;2023-02-01T07:33:48;6.20;99.90
15296;DHT22;7749;49.964;7.890;2023-02-01T07:36:19;6.20;99.90
15296;DHT22;7749;49.964;7.890;2023-02-01T07:38:47;6.30;99.90
15296;DHT22;7749;49.964;7.890;2023-02-01T07:41:15;6.20;99.90
15296;DHT22;7749;49.964;7.890;2023-02-01T07:43:43;6.40;99.90
15296;DHT22;7749;49.964;7.890;2023-02-01T07:46:12;6.40;99.90
15296;DHT22;7749;49.964;7.890;2023-02-01T07:48:39;6.50;99.90
15296;DHT22;7749;49.964;7.890;2023-02-01T07:51:13;6.50;99.90
15296;DHT22;7749;49.964;7.890;2023-02-01T07:53:42;6.50;99.90
15296;DHT22;7749;49.964;7.890;2023-02-01T07:56:15;6.60;99.90
15296;DHT22;7749;49.964;7.890;2023-02-01T07:58:46;6.50;99.90
15296;DHT22;7749;49.964;7.890;2023-02-01T08:01:20;6.60;99.90
15296;DHT22;7749;49.964;7.890;2023-02-01T08:03:59;6.50;99.90
15296;DHT22;7749;49.964;7.890;2023-02-01T08:06:33;6.70;99.90
15296;DHT22;7749;49.964;7.890;2023-02-01T08:09:02;6.70;99.90
15296;DHT22;7749;49.964;7.890;2023-02-01T08:11:32;6.70;99.90
15296;DHT22;7749;49.964;7.890;2023-02-01T08:14:00;6.70;99.90
15296;DHT22;7749;49.964;7.890;2023-02-01T08:16:28;6.80;99.90
15296;DHT22;7749;49.964;7.890;2023-02-01T08:18:56;6.80;99.90
15296;DHT22;7749;49.964;7.890;2023-02-01T08:21:28;6.80;99.90
15296;DHT22;7749;49.964;7.890;2023-02-01T08:24:06;6.90;99.90
15296;DHT22;7749;49.964;7.890;2023-02-01T08:26:36;6.90;99.90
15296;DHT22;7749;49.964;7.890;2023-02-01T08:29:05;7.00;99.90
15296;DHT22;7749;49.964;7.890;2023-02-01T08:31:33;7.00;99.90
15296;DHT22;7749;49.964;7.890;2023-02-01T08:34:02;7.00;99.90
15296;DHT22;7749;49.964;7.890;2023-02-01T08:36:31;7.10;99.90
15296;DHT22;7749;49.964;7.890;2023-02-01T08:39:03;7.20;99.90
15296;DHT22;7749;49.964;7.890;2023-02-01T08:41:33;7.20;99.90
15296;DHT22;7749;49.964;7.890;2023-02-01T08:44:01;7.30;99.90
15296;DHT22;7749;49.964;7.890;2023-02-01T08:46:31;7.40;99.90
15296;DHT22;7749;49.964;7.890;2023-02-01T08:48:59;7.40;99.90
15296;DHT22;7749;49.964;7.890;2023-02-01T08:51:27;7.40;99.90
15296;DHT22;7749;49.964;7.890;2023-02-01T08:53:54;7.50;99.90
15296;DHT22;7749;49.964;7.890;2023-02-01T08:56:22;7.50;99.90
15296;DHT22;7749;49.964;7.890;2023-02-01T08:58:50;7.50;99.90
15296;DHT22;7749;49.964;7.890;2023-02-01T09:01:18;7.40;99.90
15296;DHT22;7749;49.964;7.890;2023-02-01T09:03:45;7.30;99.90
15296;DHT22;7749;49.964;7.890;2023-02-01T09:06:15;7.30;99.90
15296;DHT22;7749;49.964;7.890;2023-02-01T09:08:44;7.10;99.90
15296;DHT22;7749;49.964;7.890;2023-02-01T09:11:14;7.20;99.90
15296;DHT22;7749;49.964;7.890;2023-02-01T09:13:42;7.20;99.90
15296;DHT22;7749;49.964;7.890;2023-02-01T09:16:10;7.30;99.90
15296;DHT22;7749;49.964;7.890;2023-02-01T09:18:38;7.30;99.90
15296;DHT22;7749;49.964;7.890;2023-02-01T09:21:23;7.20;99.90
15296;DHT22;7749;49.964;7.890;2023-02-01T09:23:51;7.30;99.90
15296;DHT22;7749;49.964;7.890;2023-02-01T09:26:19;7.20;99.90
15296;DHT22;7749;49.964;7.890;2023-02-01T09:28:57;7.30;99.90
15296;DHT22;7749;49.964;7.890;2023-02-01T09:31:25;7.30;99.90
15296;DHT22;7749;49.964;7.890;2023-02-01T09:33:56;7.40;99.90
15296;DHT22;7749;49.964;7.890;2023-02-01T09:36:24;7.50;99.90
15296;DHT22;7749;49.964;7.890;2023-02-01T09:38:52;7.40;99.90
15296;DHT22;7749;49.964;7.890;2023-02-01T09:41:35;7.50;1.00
15296;DHT22;7749;49.964;7.890;2023-02-01T09:46:56;7.70;1.00
15296;DHT22;7749;49.964;7.890;2023-02-01T09:49:29;7.80;1.00
15296;DHT22;7749;49.964;7.890;2023-02-01T09:52:02;7.70;1.00
15296;DHT22;7749;49.964;7.890;2023-02-01T09:54:42;7.80;93.70
15296;DHT22;7749;49.964;7.890;2023-02-01T09:57:42;7.90;1.00
15296;DHT22;7749;49.964;7.890;2023-02-01T10:00:24;8.10;99.90
15296;DHT22;7749;49.964;7.890;2023-02-01T10:02:54;8.20;99.90
15296;DHT22;7749;49.964;7.890;2023-02-01T10:22:43;8.20;99.90
15296;DHT22;7749;49.964;7.890;2023-02-01T10:25:54;8.30;99.90
15296;DHT22;7749;49.964;7.890;2023-02-01T10:28:23;8.10;99.90
15296;DHT22;7749;49.964;7.890;2023-02-01T10:30:57;8.10;99.90
15296;DHT22;7749;49.964;7.890;2023-02-01T10:36:24;8.00;1.00
15296;DHT22;7749;49.964;7.890;2023-02-01T10:38:59;8.10;99.90
15296;DHT22;7749;49.964;7.890;2023-02-01T10:41:33;8.10;1.00
15296;DHT22;7749;49.964;7.890;2023-02-01T10:44:10;8.10;99.90
15296;DHT22;7749;49.964;7.890;2023-02-01T10:46:40;8.00;1.00
15296;DHT22;7749;49.964;7.890;2023-02-01T10:49:19;8.00;1.00
15296;DHT22;7749;49.964;7.890;2023-02-01T10:52:05;8.10;1.00
15296;DHT22;7749;49.964;7.890;2023-02-01T10:54:38;8.20;1.00
15296;DHT22;7749;49.964;7.890;2023-02-01T10:57:19;7.90;1.00
15296;DHT22;7749;49.964;7.890;2023-02-01T10:59:47;7.90;1.00
15296;DHT22;7749;49.964;7.890;2023-02-01T11:02:35;7.90;1.00
15296;DHT22;7749;49.964;7.890;2023-02-01T11:05:05;8.00;99.90
15296;DHT22;7749;49.964;7.890;2023-02-01T11:07:37;8.00;99.90
15296;DHT22;7749;49.964;7.890;2023-02-01T11:10:10;8.00;99.90
15296;DHT22;7749;49.964;7.890;2023-02-01T11:12:54;8.10;66.30
15296;DHT22;7749;49.964;7.890;2023-02-01T11:15:23;8.10;7.90
15296;DHT22;7749;49.964;7.890;2023-02-01T11:17:52;7.90;1.00
15296;DHT22;7749;49.964;7.890;2023-02-01T11:23:01;7.90;99.90
15296;DHT22;7749;49.964;7.890;2023-02-01T11:25:31;8.10;99.90
15296;DHT22;7749;49.964;7.890;2023-02-01T11:28:01;7.90;72.30
15296;DHT22;7749;49.964;7.890;2023-02-01T11:30:34;7.90;99.90
15296;DHT22;7749;49.964;7.890;2023-02-01T11:33:05;7.90;99.90
15296;DHT22;7749;49.964;7.890;2023-02-01T11:35:40;8.10;76.90
15296;DHT22;7749;49.964;7.890;2023-02-01T11:38:26;8.20;97.40
15296;DHT22;7749;49.964;7.890;2023-02-01T11:40:54;8.10;30.60
15296;DHT22;7749;49.964;7.890;2023-02-01T11:43:28;7.90;99.90
15296;DHT22;7749;49.964;7.890;2023-02-01T11:46:01;7.90;99.90
15296;DHT22;7749;49.964;7.890;2023-02-01T11:48:33;7.90;99.90
15296;DHT22;7749;49.964;7.890;2023-02-01T11:51:16;8.10;99.90
15296;DHT22;7749;49.964;7.890;2023-02-01T11:54:11;8.10;1.00
15296;DHT22;7749;49.964;7.890;2023-02-01T12:00:04;8.30;1.00
15296;DHT22;7749;49.964;7.890;2023-02-01T12:05:47;8.40;99.90
15296;DHT22;7749;49.964;7.890;2023-02-01T12:08:37;8.40;99.90
15296;DHT22;7749;49.964;7.890;2023-02-01T12:22:23;8.90;1.00
15296;DHT22;7749;49.964;7.890;2023-02-01T12:35:59;9.00;1.00
15296;DHT22;7749;49.964;7.890;2023-02-01T12:44:27;10.20;1.00
15296;DHT22;7749;49.964;7.890;2023-02-01T12:47:07;10.20;99.90
15296;DHT22;7749;49.964;7.890;2023-02-01T12:49:50;9.60;1.00
15296;DHT22;7749;49.964;7.890;2023-02-01T12:52:42;8.90;99.90
15296;DHT22;7749;49.964;7.890;2023-02-01T12:55:22;8.80;1.00
15296;DHT22;7749;49.964;7.890;2023-02-01T12:58:06;8.80;1.00
15296;DHT22;7749;49.964;7.890;2023-02-01T13:03:38;9.10;99.90
15296;DHT22;7749;49.964;7.890;2023-02-01T13:06:19;9.70;1.00
15296;DHT22;7749;49.964;7.890;2023-02-01T13:09:03;10.30;99.90
15296;DHT22;7749;49.964;7.890;2023-02-01T13:11:38;10.70;1.00
15296;DHT22;7749;49.964;7.890;2023-02-01T13:14:25;10.60;99.90
15296;DHT22;7749;49.964;7.890;2023-02-01T13:17:15;10.80;99.90
15296;DHT22;7749;49.964;7.890;2023-02-01T13:19:49;12.80;1.00
15296;DHT22;7749;49.964;7.890;2023-02-01T13:22:30;14.20;1.00
15296;DHT22;7749;49.964;7.890;2023-02-01T13:27:36;16.30;99.90
15296;DHT22;7749;49.964;7.890;2023-02-01T13:30:17;15.20;99.90
15296;DHT22;7749;49.964;7.890;2023-02-01T13:32:55;13.70;99.90
15296;DHT22;7749;49.964;7.890;2023-02-01T13:43:51;16.50;99.90
15296;DHT22;7749;49.964;7.890;2023-02-01T13:46:20;15.70;99.90
15296;DHT22;7749;49.964;7.890;2023-02-01T13:48:52;15.80;1.00
15296;DHT22;7749;49.964;7.890;2023-02-01T13:51:42;16.10;99.90
15296;DHT22;7749;49.964;7.890;2023-02-01T13:54:44;16.30;99.90
15296;DHT22;7749;49.964;7.890;2023-02-01T13:57:36;13.00;1.00
15296;DHT22;7749;49.964;7.890;2023-02-01T14:00:26;11.80;1.00
15296;DHT22;7749;49.964;7.890;2023-02-01T14:08:22;12.80;99.90
15296;DHT22;7749;49.964;7.890;2023-02-01T14:10:58;13.20;99.90
15296;DHT22;7749;49.964;7.890;2023-02-01T14:34:48;10.90;1.00
15296;DHT22;7749;49.964;7.890;2023-02-01T14:44:55;10.90;1.00
15296;DHT22;7749;49.964;7.890;2023-02-01T14:47:28;10.90;22.70
15296;DHT22;7749;49.964;7.890;2023-02-01T14:52:34;9.80;1.00
15296;DHT22;7749;49.964;7.890;2023-02-01T14:55:06;9.90;1.00
15296;DHT22;7749;49.964;7.890;2023-02-01T14:57:39;9.80;1.00
15296;DHT22;7749;49.964;7.890;2023-02-01T15:00:18;9.80;1.00
15296;DHT22;7749;49.964;7.890;2023-02-01T15:02:48;9.70;1.00
15296;DHT22;7749;49.964;7.890;2023-02-01T15:05:27;9.80;1.00
15296;DHT22;7749;49.964;7.890;2023-02-01T15:08:04;9.70;1.00
15296;DHT22;7749;49.964;7.890;2023-02-01T15:10:41;9.60;99.90
15296;DHT22;7749;49.964;7.890;2023-02-01T15:13:24;9.40;87.40
15296;DHT22;7749;49.964;7.890;2023-02-01T15:16:03;9.50;1.00
15296;DHT22;7749;49.964;7.890;2023-02-01T15:18:32;9.60;99.90
15296;DHT22;7749;49.964;7.890;2023-02-01T15:21:01;9.50;99.90
15296;DHT22;7749;49.964;7.890;2023-02-01T15:24:10;9.50;45.60
15296;DHT22;7749;49.964;7.890;2023-02-01T15:26:38;9.30;13.30
15296;DHT22;7749;49.964;7.890;2023-02-01T15:29:10;9.20;99.90
15296;DHT22;7749;49.964;7.890;2023-02-01T15:31:43;9.10;99.90
15296;DHT22;7749;49.964;7.890;2023-02-01T15:34:15;9.10;99.90
15296;DHT22;7749;49.964;7.890;2023-02-01T15:36:43;9.20;99.90
15296;DHT22;7749;49.964;7.890;2023-02-01T15:39:29;9.00;1.00
15296;DHT22;7749;49.964;7.890;2023-02-01T15:42:08;9.00;1.00
15296;DHT22;7749;49.964;7.890;2023-02-01T15:44:40;9.10;1.00
15296;DHT22;7749;49.964;7.890;2023-02-01T15:47:23;9.10;1.00
15296;DHT22;7749;49.964;7.890;2023-02-01T15:49:53;8.90;99.90
15296;DHT22;7749;49.964;7.890;2023-02-01T15:52:32;9.00;99.90
15296;DHT22;7749;49.964;7.890;2023-02-01T15:55:05;8.90;1.00
15296;DHT22;7749;49.964;7.890;2023-02-01T15:57:38;8.90;1.00
15296;DHT22;7749;49.964;7.890;2023-02-01T16:03:20;8.80;99.90
15296;DHT22;7749;49.964;7.890;2023-02-01T16:05:58;8.70;1.00
15296;DHT22;7749;49.964;7.890;2023-02-01T16:08:28;8.70;1.00
15296;DHT22;7749;49.964;7.890;2023-02-01T16:12:01;8.70;1.00
15296;DHT22;7749;49.964;7.890;2023-02-01T16:14:03;8.70;1.00
15296;DHT22;7749;49.964;7.890;2023-02-01T16:16:30;8.70;1.00
15296;DHT22;7749;49.964;7.890;2023-02-01T16:18:58;8.80;41.50
15296;DHT22;7749;49.964;7.890;2023-02-01T16:21:26;8.70;1.00
15296;DHT22;7749;49.964;7.890;2023-02-01T16:23:56;8.70;91.40
15296;DHT22;7749;49.964;7.890;2023-02-01T16:26:24;8.70;99.90
15296;DHT22;7749;49.964;7.890;2023-02-01T16:28:52;8.60;99.90
15296;DHT22;7749;49.964;7.890;2023-02-01T16:31:24;8.60;1.00
15296;DHT22;7749;49.964;7.890;2023-02-01T16:33:53;8.50;1.00
15296;DHT22;7749;49.964;7.890;2023-02-01T16:36:21;8.50;59.60
15296;DHT22;7749;49.964;7.890;2023-02-01T16:38:49;8.60;99.90
15296;DHT22;7749;49.964;7.890;2023-02-01T16:41:18;8.50;1.00
15296;DHT22;7749;49.964;7.890;2023-02-01T16:43:50;8.50;1.00
15296;DHT22;7749;49.964;7.890;2023-02-01T16:46:23;8.50;99.90
15296;DHT22;7749;49.964;7.890;2023-02-01T16:48:58;8.40;99.90
15296;DHT22;7749;49.964;7.890;2023-02-01T16:51:29;8.40;99.90
15296;DHT22;7749;49.964;7.890;2023-02-01T16:53:59;8.40;99.90
15296;DHT22;7749;49.964;7.890;2023-02-01T16:56:32;8.40;99.90
15296;DHT22;7749;49.964;7.890;2023-02-01T16:59:00;8.30;1.00
15296;DHT22;7749;49.964;7.890;2023-02-01T17:01:28;8.30;1.00
15296;DHT22;7749;49.964;7.890;2023-02-01T17:03:56;8.20;1.00
15296;DHT22;7749;49.964;7.890;2023-02-01T17:06:25;8.20;1.00
15296;DHT22;7749;49.964;7.890;2023-02-01T17:08:56;8.20;1.00
15296;DHT22;7749;49.964;7.890;2023-02-01T17:11:27;8.10;99.90
15296;DHT22;7749;49.964;7.890;2023-02-01T17:14:08;8.10;62.60
15296;DHT22;7749;49.964;7.890;2023-02-01T17:16:37;8.10;99.90
15296;DHT22;7749;49.964;7.890;2023-02-01T17:19:11;8.00;99.90
15296;DHT22;7749;49.964;7.890;2023-02-01T17:21:48;8.00;1.00
15296;DHT22;7749;49.964;7.890;2023-02-01T17:24:21;7.90;1.00
15296;DHT22;7749;49.964;7.890;2023-02-01T17:26:49;7.80;1.00
15296;DHT22;7749;49.964;7.890;2023-02-01T17:29:18;7.90;1.00
15296;DHT22;7749;49.964;7.890;2023-02-01T17:31:52;7.80;1.00
15296;DHT22;7749;49.964;7.890;2023-02-01T17:34:21;7.90;1.00
15296;DHT22;7749;49.964;7.890;2023-02-01T17:36:49;7.90;1.00
15296;DHT22;7749;49.964;7.890;2023-02-01T17:39:18;7.90;1.00
15296;DHT22;7749;49.964;7.890;2023-02-01T17:42:04;7.90;1.00
15296;DHT22;7749;49.964;7.890;2023-02-01T17:44:33;7.90;99.90
15296;DHT22;7749;49.964;7.890;2023-02-01T17:47:00;7.90;99.90
15296;DHT22;7749;49.964;7.890;2023-02-01T17:49:28;7.80;99.90
15296;DHT22;7749;49.964;7.890;2023-02-01T17:51:56;7.90;99.90
15296;DHT22;7749;49.964;7.890;2023-02-01T17:54:24;7.90;99.90
15296;DHT22;7749;49.964;7.890;2023-02-01T17:56:52;7.80;99.90
15296;DHT22;7749;49.964;7.890;2023-02-01T17:59:20;7.80;99.90
15296;DHT22;7749;49.964;7.890;2023-02-01T18:01:50;7.70;1.00
15296;DHT22;7749;49.964;7.890;2023-02-01T18:04:18;7.70;1.00
15296;DHT22;7749;49.964;7.890;2023-02-01T18:06:48;7.80;1.00
15296;DHT22;7749;49.964;7.890;2023-02-01T18:09:18;7.80;1.00
15296;DHT22;7749;49.964;7.890;2023-02-01T18:11:46;7.70;1.00
15296;DHT22;7749;49.964;7.890;2023-02-01T18:14:15;7.70;1.00
15296;DHT22;7749;49.964;7.890;2023-02-01T18:16:43;7.70;1.00
15296;DHT22;7749;49.964;7.890;2023-02-01T18:19:11;7.70;1.00
15296;DHT22;7749;49.964;7.890;2023-02-01T18:21:42;7.80;1.00
15296;DHT22;7749;49.964;7.890;2023-02-01T18:24:15;7.80;1.00
15296;DHT22;7749;49.964;7.890;2023-02-01T18:26:43;7.90;1.00
15296;DHT22;7749;49.964;7.890;2023-02-01T18:29:11;8.00;1.00
15296;DHT22;7749;49.964;7.890;2023-02-01T18:31:44;7.90;1.00
15296;DHT22;7749;49.964;7.890;2023-02-01T18:34:14;7.90;1.00
15296;DHT22;7749;49.964;7.890;2023-02-01T18:36:49;7.80;1.00
15296;DHT22;7749;49.964;7.890;2023-02-01T18:39:17;7.80;1.00
15296;DHT22;7749;49.964;7.890;2023-02-01T18:41:45;7.80;1.00
15296;DHT22;7749;49.964;7.890;2023-02-01T18:44:14;7.80;1.00
15296;DHT22;7749;49.964;7.890;2023-02-01T18:46:42;7.80;1.00
15296;DHT22;7749;49.964;7.890;2023-02-01T18:49:10;7.80;1.00
15296;DHT22;7749;49.964;7.890;2023-02-01T18:51:45;7.80;1.00
15296;DHT22;7749;49.964;7.890;2023-02-01T18:54:13;7.80;1.00
15296;DHT22;7749;49.964;7.890;2023-02-01T18:56:41;7.90;1.00
15296;DHT22;7749;49.964;7.890;2023-02-01T18:59:09;7.90;1.00
15296;DHT22;7749;49.964;7.890;2023-02-01T19:01:40;7.90;1.00